createdAt,value
2023-04-06T00:02:10.097Z,30.02
2023-04-06T00:04:37.250Z,28.85
2023-04-06T00:07:04.962Z,27.60
2023-04-06T00:09:36.994Z,35.05
2023-04-06T00:12:04.434Z,24.87
2023-04-06T00:14:31.510Z,28.17
2023-04-06T00:16:58.678Z,28.90
2023-04-06T00:19:26.208Z,28.48
2023-04-06T00:21:53.304Z,26.20
2023-04-06T00:24:20.860Z,29.40
2023-04-06T00:26:48.080Z,26.00
2023-04-06T00:29:15.235Z,28.90
2023-04-06T00:31:42.462Z,29.35
2023-04-06T00:34:09.502Z,28.90
2023-04-06T00:36:37.808Z,26.38
2023-04-06T00:39:04.646Z,25.60
2023-04-06T00:41:31.858Z,30.25
2023-04-06T00:43:58.900Z,23.63
2023-04-06T00:46:26.072Z,23.58
2023-04-06T00:48:53.103Z,29.48
2023-04-06T00:51:19.987Z,25.27
2023-04-06T00:53:47.431Z,28.25
2023-04-06T00:56:16.393Z,24.02
2023-04-06T00:58:43.296Z,25.50
2023-04-06T01:01:10.436Z,25.38
2023-04-06T01:03:37.274Z,23.73
2023-04-06T01:06:04.214Z,27.77
2023-04-06T01:08:31.820Z,25.65
2023-04-06T01:11:03.129Z,30.38
2023-04-06T01:13:35.835Z,28.77
2023-04-06T01:16:04.550Z,29.45
2023-04-06T01:18:32.036Z,26.42
2023-04-06T01:21:00.822Z,25.25
2023-04-06T01:23:28.264Z,22.33
2023-04-06T01:25:55.760Z,26.80
2023-04-06T01:28:25.507Z,23.67
2023-04-06T01:30:52.424Z,26.60
2023-04-06T01:33:19.489Z,26.45
2023-04-06T01:35:46.627Z,24.88
2023-04-06T01:38:13.503Z,24.15
2023-04-06T01:40:40.852Z,24.38
2023-04-06T01:43:07.903Z,26.10
2023-04-06T01:45:34.777Z,26.90
2023-04-06T01:48:02.095Z,27.95
2023-04-06T01:50:29.392Z,25.30
2023-04-06T01:52:56.304Z,23.77
2023-04-06T01:55:23.221Z,27.42
2023-04-06T01:57:50.417Z,24.58
2023-04-06T02:00:17.696Z,20.85
2023-04-06T02:02:44.591Z,25.48
2023-04-06T02:05:11.828Z,23.10
2023-04-06T02:07:38.631Z,21.50
2023-04-06T02:10:14.954Z,25.15
2023-04-06T02:12:42.107Z,23.25
2023-04-06T02:15:09.941Z,21.15
2023-04-06T02:17:36.867Z,20.45
2023-04-06T02:20:03.813Z,23.25
2023-04-06T02:22:30.788Z,24.48
2023-04-06T02:24:57.763Z,20.20
2023-04-06T02:27:24.770Z,24.30
2023-04-06T02:29:52.058Z,24.00
2023-04-06T02:32:18.866Z,26.50
2023-04-06T02:34:45.730Z,23.63
2023-04-06T02:37:12.611Z,25.48
2023-04-06T02:39:40.036Z,21.98
2023-04-06T02:42:06.854Z,25.65
2023-04-06T02:44:33.647Z,23.92
2023-04-06T02:47:00.429Z,26.30
2023-04-06T02:49:27.331Z,26.23
2023-04-06T02:51:54.474Z,22.02
2023-04-06T02:54:21.368Z,23.58
2023-04-06T02:56:48.214Z,23.30
2023-04-06T02:59:15.186Z,24.70
2023-04-06T03:01:42.386Z,24.35
2023-04-06T03:04:09.647Z,27.13
2023-04-06T03:06:36.725Z,24.52
2023-04-06T03:09:03.822Z,23.25
2023-04-06T03:11:30.844Z,21.73
2023-04-06T03:13:57.661Z,24.00
2023-04-06T03:16:24.557Z,23.67
2023-04-06T03:18:51.546Z,23.95
2023-04-06T03:21:20.788Z,20.33
2023-04-06T03:23:47.950Z,22.25
2023-04-06T03:26:15.124Z,26.20
2023-04-06T03:28:42.176Z,23.33
2023-04-06T03:31:09.480Z,24.98
2023-04-06T03:33:36.586Z,27.33
2023-04-06T03:36:03.918Z,25.48
2023-04-06T03:38:30.854Z,24.33
2023-04-06T03:40:58.043Z,21.83
2023-04-06T03:43:25.228Z,23.67
2023-04-06T03:45:52.458Z,27.73
2023-04-06T03:48:19.220Z,23.10
2023-04-06T03:50:46.387Z,23.08
2023-04-06T03:53:13.736Z,25.42
2023-04-06T03:55:41.114Z,20.08
2023-04-06T03:58:07.969Z,23.90
2023-04-06T04:00:34.901Z,25.08
2023-04-06T04:03:03.424Z,21.77
2023-04-06T04:05:30.924Z,23.02
2023-04-06T04:07:57.821Z,22.30
2023-04-06T04:10:25.734Z,23.95
2023-04-06T04:12:52.594Z,23.13
2023-04-06T04:15:19.814Z,25.95
2023-04-06T04:17:48.017Z,24.30
2023-04-06T04:20:14.984Z,23.70
2023-04-06T04:22:42.245Z,20.48
2023-04-06T04:25:11.298Z,22.55
2023-04-06T04:27:38.440Z,25.95
2023-04-06T04:30:06.835Z,23.77
2023-04-06T04:32:34.095Z,26.30
2023-04-06T04:35:01.214Z,24.45
2023-04-06T04:37:28.304Z,22.42
2023-04-06T04:39:55.107Z,25.80
2023-04-06T04:42:22.205Z,28.08
2023-04-06T04:44:49.008Z,23.98
2023-04-06T04:47:15.826Z,22.85
2023-04-06T04:49:45.964Z,20.63
2023-04-06T04:52:12.793Z,23.52
2023-04-06T04:54:42.164Z,23.88
2023-04-06T04:57:09.185Z,22.42
2023-04-06T04:59:38.927Z,22.40
2023-04-06T05:02:06.546Z,20.90
2023-04-06T05:04:33.433Z,22.85
2023-04-06T05:07:19.774Z,25.08
2023-04-06T05:09:47.057Z,20.80
2023-04-06T05:12:13.991Z,24.45
2023-04-06T05:14:41.494Z,18.67
2023-04-06T05:17:09.610Z,21.42
2023-04-06T05:19:36.808Z,30.00
2023-04-06T05:22:04.109Z,22.08
2023-04-06T05:24:31.496Z,28.17
2023-04-06T05:26:58.377Z,21.85
2023-04-06T05:29:25.617Z,25.40
2023-04-06T05:31:52.554Z,22.58
2023-04-06T05:34:20.345Z,22.50
2023-04-06T05:36:47.629Z,20.80
2023-04-06T05:39:14.501Z,18.45
2023-04-06T05:41:41.576Z,20.88
2023-04-06T05:44:08.419Z,16.73
2023-04-06T05:46:35.706Z,20.30
2023-04-06T05:49:05.499Z,18.80
2023-04-06T05:51:33.994Z,19.20
2023-04-06T05:54:01.261Z,19.92
2023-04-06T05:56:28.157Z,17.77
2023-04-06T05:58:55.450Z,20.27
2023-04-06T06:01:22.216Z,19.38
2023-04-06T06:03:49.387Z,30.13
2023-04-06T06:06:16.630Z,24.98
2023-04-06T06:08:43.824Z,18.05
2023-04-06T06:11:10.724Z,19.35
2023-04-06T06:13:37.961Z,18.25
2023-04-06T06:16:06.359Z,18.15
2023-04-06T06:18:33.696Z,20.55
2023-04-06T06:21:01.612Z,17.65
2023-04-06T06:23:28.771Z,19.95
2023-04-06T06:25:57.684Z,17.25
2023-04-06T06:28:26.267Z,18.48
2023-04-06T06:30:53.636Z,16.48
2023-04-06T06:33:20.965Z,17.98
2023-04-06T06:35:48.178Z,22.00
2023-04-06T06:38:18.568Z,19.27
2023-04-06T06:40:47.393Z,22.52
2023-04-06T06:43:14.281Z,17.85
2023-04-06T06:45:41.230Z,19.95
2023-04-06T06:48:08.498Z,16.10
2023-04-06T06:50:36.018Z,16.92
2023-04-06T06:53:02.974Z,18.63
2023-04-06T06:55:31.370Z,19.13
2023-04-06T06:57:59.131Z,25.98
2023-04-06T07:00:26.079Z,25.45
2023-04-06T07:02:54.000Z,20.02
2023-04-06T07:05:28.347Z,18.92
2023-04-06T07:07:56.815Z,15.52
2023-04-06T07:10:24.100Z,17.45
2023-04-06T07:12:52.020Z,20.98
2023-04-06T07:15:19.322Z,15.90
2023-04-06T07:17:46.549Z,16.73
2023-04-06T07:20:14.164Z,26.80
2023-04-06T07:22:44.267Z,19.30
2023-04-06T07:25:12.005Z,15.00
2023-04-06T07:27:39.101Z,17.50
2023-04-06T07:30:06.846Z,20.02
2023-04-06T07:32:35.821Z,19.45
2023-04-06T07:35:03.417Z,21.33
2023-04-06T07:37:32.312Z,16.65
2023-04-06T07:39:59.649Z,17.98
2023-04-06T07:42:26.564Z,22.38
2023-04-06T07:44:53.551Z,14.82
2023-04-06T07:47:20.535Z,15.80
2023-04-06T07:49:47.424Z,16.98
2023-04-06T07:52:14.569Z,17.90
2023-04-06T07:54:42.784Z,19.08
2023-04-06T07:57:09.604Z,23.20
2023-04-06T07:59:36.745Z,15.20
2023-04-06T08:02:04.015Z,19.17
2023-04-06T08:04:31.249Z,19.48
2023-04-06T08:06:58.450Z,19.10
2023-04-06T08:09:25.372Z,20.27
2023-04-06T08:11:52.176Z,20.38
2023-04-06T08:14:19.007Z,20.60
2023-04-06T08:16:46.296Z,18.73
2023-04-06T08:19:13.306Z,18.25
2023-04-06T08:21:41.488Z,19.48
2023-04-06T08:24:08.913Z,18.30
2023-04-06T08:26:36.192Z,19.98
2023-04-06T08:29:05.019Z,21.13
2023-04-06T08:31:32.080Z,19.25
2023-04-06T08:33:59.428Z,17.13
2023-04-06T08:36:26.252Z,18.50
2023-04-06T08:38:53.860Z,24.90
2023-04-06T08:41:22.204Z,21.60
2023-04-06T08:43:52.659Z,18.35
2023-04-06T08:46:19.957Z,19.88
2023-04-06T08:48:51.363Z,22.05
2023-04-06T08:51:19.964Z,22.30
2023-04-06T08:53:47.494Z,18.73
2023-04-06T08:56:14.403Z,22.48
2023-04-06T08:58:42.251Z,19.65
2023-04-06T09:01:12.493Z,17.95
2023-04-06T09:03:41.459Z,20.67
2023-04-06T09:06:09.753Z,22.33
2023-04-06T09:08:39.274Z,24.40
2023-04-06T09:11:49.048Z,22.10
2023-04-06T09:14:17.756Z,19.15
2023-04-06T09:16:46.639Z,25.20
2023-04-06T09:19:14.270Z,20.40
2023-04-06T09:21:41.183Z,20.85
2023-04-06T09:24:09.775Z,22.38
2023-04-06T09:26:48.303Z,20.65
2023-04-06T09:29:27.743Z,24.40
2023-04-06T09:32:04.684Z,23.65
2023-04-06T09:34:32.345Z,21.70
2023-04-06T09:37:00.004Z,24.38
2023-04-06T09:39:27.704Z,26.50
2023-04-06T09:41:55.814Z,22.27
2023-04-06T09:44:25.140Z,21.20
2023-04-06T09:47:00.326Z,22.05
2023-04-06T09:49:34.420Z,23.88
2023-04-06T09:52:09.031Z,23.40
2023-04-06T09:54:37.339Z,23.92
2023-04-06T09:57:22.643Z,21.73
2023-04-06T09:59:52.892Z,23.27
2023-04-06T10:02:27.281Z,23.40
2023-04-06T10:05:38.137Z,21.48
2023-04-06T10:08:11.277Z,23.90
2023-04-06T10:13:06.535Z,21.80
2023-04-06T10:15:35.674Z,20.02
2023-04-06T10:18:04.753Z,21.73
2023-04-06T10:20:46.863Z,25.83
2023-04-06T10:23:21.847Z,23.52
2023-04-06T10:25:56.442Z,25.17
2023-04-06T10:29:04.396Z,21.55
2023-04-06T10:31:31.702Z,23.27
2023-04-06T10:34:00.736Z,25.45
2023-04-06T10:36:34.437Z,26.23
2023-04-06T10:39:04.524Z,24.00
2023-04-06T10:41:36.408Z,23.65
2023-04-06T10:44:04.130Z,21.73
2023-04-06T10:46:33.009Z,22.65
2023-04-06T10:49:13.323Z,23.05
2023-04-06T10:51:42.425Z,25.33
2023-04-06T10:54:15.659Z,24.40
2023-04-06T10:56:42.651Z,25.13
2023-04-06T10:59:09.978Z,24.58
2023-04-06T11:01:37.154Z,24.48
2023-04-06T11:04:04.664Z,24.48
2023-04-06T11:06:33.828Z,21.27
2023-04-06T11:09:01.429Z,24.60
2023-04-06T11:11:30.892Z,23.23
2023-04-06T11:14:02.175Z,21.85
2023-04-06T11:16:33.029Z,23.17
2023-04-06T11:19:02.791Z,24.42
2023-04-06T11:21:41.051Z,25.23
2023-04-06T11:24:14.333Z,25.00
2023-04-06T11:26:45.164Z,25.17
2023-04-06T11:29:14.036Z,24.95
2023-04-06T11:31:47.832Z,29.45
2023-04-06T11:34:18.707Z,23.77
2023-04-06T11:36:47.330Z,22.80
2023-04-06T11:39:22.583Z,26.48
2023-04-06T11:41:51.109Z,25.13
2023-04-06T11:44:40.293Z,22.50
2023-04-06T11:47:11.957Z,23.27
2023-04-06T11:49:40.888Z,21.65
2023-04-06T11:52:22.020Z,25.13
2023-04-06T11:54:50.769Z,26.80
2023-04-06T11:58:08.371Z,21.80
2023-04-06T12:00:38.301Z,23.40
2023-04-06T12:03:05.146Z,24.17
2023-04-06T12:05:33.844Z,25.13
2023-04-06T12:08:02.598Z,22.80
2023-04-06T12:14:17.789Z,21.95
2023-04-06T12:20:34.106Z,24.98
2023-04-06T12:23:02.314Z,23.15
2023-04-06T12:25:30.571Z,22.27
2023-04-06T12:27:58.164Z,23.08
2023-04-06T12:30:25.057Z,17.85
2023-04-06T12:35:36.736Z,19.95
2023-04-06T12:38:04.553Z,16.52
2023-04-06T12:40:31.649Z,17.55
2023-04-06T12:42:58.904Z,13.95
2023-04-06T12:45:25.915Z,14.45
2023-04-06T12:47:52.918Z,14.95
2023-04-06T12:50:20.037Z,16.58
2023-04-06T12:52:48.596Z,16.30
2023-04-06T12:55:18.375Z,12.98
2023-04-06T12:57:46.469Z,13.75
2023-04-06T13:00:15.470Z,14.57
2023-04-06T13:02:48.447Z,14.02
2023-04-06T13:05:19.808Z,14.70
2023-04-06T13:07:48.128Z,14.73
2023-04-06T13:10:15.250Z,14.52
2023-04-06T13:12:42.331Z,17.95
2023-04-06T13:15:11.075Z,14.13
2023-04-06T13:17:38.190Z,14.20
2023-04-06T13:20:07.263Z,14.10
2023-04-06T13:22:34.302Z,13.77
2023-04-06T13:25:04.144Z,15.10
2023-04-06T13:27:37.253Z,13.95
2023-04-06T13:30:06.117Z,12.40
2023-04-06T13:32:34.279Z,10.13
2023-04-06T13:35:03.086Z,12.35
2023-04-06T13:37:29.952Z,13.85
2023-04-06T13:39:56.900Z,15.73
2023-04-06T13:42:23.760Z,19.13
